createdAt,value
2018-06-20T00:00:08.338Z,23.80
2018-06-20T00:01:15.667Z,23.80
2018-06-20T00:02:23.040Z,23.80
2018-06-20T00:03:30.524Z,23.80
2018-06-20T00:04:38.596Z,23.80
2018-06-20T00:05:46.052Z,23.70
2018-06-20T00:06:53.363Z,23.70
2018-06-20T00:08:00.614Z,23.80
2018-06-20T00:09:08.219Z,23.80
2018-06-20T00:10:15.527Z,23.70
2018-06-20T00:11:23.047Z,23.70
2018-06-20T00:12:30.458Z,23.70
2018-06-20T00:13:37.951Z,23.80
2018-06-20T00:14:45.399Z,23.80
2018-06-20T00:15:52.950Z,23.80
2018-06-20T00:17:00.394Z,23.80
2018-06-20T00:18:07.872Z,23.80
2018-06-20T00:19:15.299Z,23.80
2018-06-20T00:20:22.652Z,23.70
2018-06-20T00:21:30.063Z,23.70
2018-06-20T00:22:37.472Z,23.80
2018-06-20T00:23:44.651Z,23.80
2018-06-20T00:24:51.799Z,23.80
2018-06-20T00:25:58.819Z,23.70
2018-06-20T00:27:06.027Z,23.80
2018-06-20T00:28:13.336Z,23.80
2018-06-20T00:29:20.530Z,23.70
2018-06-20T00:30:27.754Z,23.80
2018-06-20T00:31:35.006Z,23.80
2018-06-20T00:32:42.192Z,23.80
2018-06-20T00:33:47.100Z,23.80
2018-06-20T00:34:52.096Z,23.80
2018-06-20T00:35:56.974Z,23.70
2018-06-20T00:37:01.966Z,23.80
2018-06-20T00:38:06.845Z,23.80
2018-06-20T00:39:11.844Z,23.80
2018-06-20T00:40:16.737Z,23.80
2018-06-20T00:41:21.627Z,23.80
2018-06-20T00:42:26.486Z,23.70
2018-06-20T00:43:31.413Z,23.80
2018-06-20T00:44:36.218Z,23.70
2018-06-20T00:45:41.136Z,23.80
2018-06-20T00:46:46.064Z,23.80
2018-06-20T00:47:50.905Z,23.80
2018-06-20T00:48:55.826Z,23.80
2018-06-20T00:50:00.840Z,23.80
2018-06-20T00:51:05.672Z,23.80
2018-06-20T00:52:10.551Z,23.80
2018-06-20T00:53:15.432Z,23.80
2018-06-20T00:54:20.370Z,23.80
2018-06-20T00:55:25.304Z,23.80
2018-06-20T00:56:30.149Z,23.70
2018-06-20T00:57:34.987Z,23.80
2018-06-20T00:58:39.944Z,23.80
2018-06-20T00:59:44.946Z,23.80
2018-06-20T01:00:49.892Z,23.80
2018-06-20T01:01:54.808Z,23.80
2018-06-20T01:02:59.761Z,23.70
2018-06-20T01:04:04.706Z,23.70
2018-06-20T01:05:09.540Z,23.70
2018-06-20T01:06:14.278Z,23.80
2018-06-20T01:07:19.157Z,23.80
2018-06-20T01:08:23.980Z,23.80
2018-06-20T01:09:29.055Z,23.80
2018-06-20T01:10:33.827Z,23.80
2018-06-20T01:11:38.734Z,23.80
2018-06-20T01:12:43.478Z,23.80
2018-06-20T01:13:48.455Z,23.80
2018-06-20T01:14:53.375Z,23.80
2018-06-20T01:15:58.233Z,23.70
2018-06-20T01:17:03.255Z,23.80
2018-06-20T01:18:08.195Z,23.80
2018-06-20T01:19:12.982Z,23.80
2018-06-20T01:20:17.971Z,23.80
2018-06-20T01:21:22.836Z,23.70
2018-06-20T01:22:27.697Z,23.80
2018-06-20T01:23:32.459Z,23.80
2018-06-20T01:24:37.407Z,23.80
2018-06-20T01:25:42.319Z,23.80
2018-06-20T01:26:47.255Z,23.70
2018-06-20T01:27:52.090Z,23.80
2018-06-20T01:28:57.061Z,23.80
2018-06-20T01:30:01.957Z,23.70
2018-06-20T01:31:06.973Z,23.70
2018-06-20T01:32:11.920Z,23.80
2018-06-20T01:33:16.852Z,23.70
2018-06-20T01:34:21.711Z,23.70
2018-06-20T01:35:26.577Z,23.70
2018-06-20T01:36:31.427Z,23.70
2018-06-20T01:37:36.245Z,23.70
2018-06-20T01:38:41.202Z,23.80
2018-06-20T01:39:46.113Z,23.80
2018-06-20T01:40:51.056Z,23.80
2018-06-20T01:41:56.093Z,23.80
2018-06-20T01:43:01.076Z,23.80
2018-06-20T01:44:06.066Z,23.80
2018-06-20T01:45:11.014Z,23.80
2018-06-20T01:46:15.941Z,23.80
2018-06-20T01:47:20.759Z,23.80
2018-06-20T01:48:25.718Z,23.80
2018-06-20T01:49:30.901Z,23.80
2018-06-20T01:50:35.805Z,23.70
2018-06-20T01:51:40.908Z,23.80
2018-06-20T01:52:45.915Z,23.80
2018-06-20T01:53:50.784Z,23.80
2018-06-20T01:54:55.525Z,23.80
2018-06-20T01:56:00.317Z,23.70
2018-06-20T01:57:05.087Z,23.80
2018-06-20T01:58:09.885Z,23.80
2018-06-20T01:59:14.747Z,23.80
2018-06-20T02:00:19.504Z,23.80
2018-06-20T02:01:24.295Z,23.70
2018-06-20T02:02:29.037Z,23.70
2018-06-20T02:03:33.993Z,23.70
2018-06-20T02:04:38.991Z,23.80
2018-06-20T02:05:43.970Z,23.80
2018-06-20T02:06:48.806Z,23.80
2018-06-20T02:07:53.681Z,23.70
2018-06-20T02:08:58.539Z,23.70
2018-06-20T02:10:03.550Z,23.70
2018-06-20T02:11:08.498Z,23.80
2018-06-20T02:12:13.448Z,23.80
2018-06-20T02:13:18.461Z,23.80
2018-06-20T02:14:23.308Z,23.80
2018-06-20T02:15:28.377Z,23.80
2018-06-20T02:16:33.225Z,23.80
2018-06-20T02:17:38.076Z,23.70
2018-06-20T02:18:43.062Z,23.80
2018-06-20T02:19:47.923Z,23.80
2018-06-20T02:20:52.937Z,23.70
2018-06-20T02:21:57.808Z,23.80
2018-06-20T02:23:02.525Z,23.80
2018-06-20T02:24:07.493Z,23.80
2018-06-20T02:25:12.466Z,23.70
2018-06-20T02:26:17.248Z,23.80
2018-06-20T02:27:22.052Z,23.70
2018-06-20T02:28:26.814Z,23.80
2018-06-20T02:29:31.708Z,23.80
2018-06-20T02:30:36.644Z,23.70
2018-06-20T02:31:41.480Z,23.80
2018-06-20T02:32:46.423Z,23.70
2018-06-20T02:33:51.167Z,23.80
2018-06-20T02:34:56.067Z,23.70
2018-06-20T02:36:01.040Z,23.80
2018-06-20T02:37:05.986Z,23.70
2018-06-20T02:38:10.744Z,23.70
2018-06-20T02:39:15.647Z,23.70
2018-06-20T02:40:20.526Z,23.70
2018-06-20T02:41:25.322Z,23.70
2018-06-20T02:42:30.291Z,23.80
2018-06-20T02:43:35.236Z,23.80
2018-06-20T02:44:40.201Z,23.80
2018-06-20T02:45:45.226Z,23.80
2018-06-20T02:46:50.187Z,23.70
2018-06-20T02:47:54.958Z,23.70
2018-06-20T02:48:59.935Z,23.70
2018-06-20T02:50:04.976Z,23.70
2018-06-20T02:51:09.960Z,23.80
2018-06-20T02:52:14.823Z,23.70
2018-06-20T02:53:19.687Z,23.70
2018-06-20T02:54:24.548Z,23.70
2018-06-20T02:55:29.352Z,23.80
2018-06-20T02:56:34.149Z,23.80
2018-06-20T02:57:39.030Z,23.80
2018-06-20T02:58:44.050Z,23.80
2018-06-20T02:59:49.019Z,23.70
2018-06-20T03:00:53.993Z,23.80
2018-06-20T03:01:58.801Z,23.70
2018-06-20T03:03:03.779Z,23.80
2018-06-20T03:04:08.737Z,23.70
2018-06-20T03:05:13.515Z,23.80
2018-06-20T03:06:18.422Z,23.80
2018-06-20T03:07:23.342Z,23.80
2018-06-20T03:08:28.076Z,23.70
2018-06-20T03:09:32.960Z,23.70
2018-06-20T03:10:37.881Z,23.70
2018-06-20T03:11:42.650Z,23.70
2018-06-20T03:12:47.561Z,23.80
2018-06-20T03:13:52.446Z,23.70
2018-06-20T03:14:57.253Z,23.70
2018-06-20T03:16:02.155Z,23.80
2018-06-20T03:17:07.132Z,23.70
2018-06-20T03:18:11.923Z,23.70
2018-06-20T03:19:16.814Z,23.70
2018-06-20T03:20:21.728Z,23.70
2018-06-20T03:21:26.532Z,23.70
2018-06-20T03:22:31.457Z,23.70
2018-06-20T03:23:36.355Z,23.70
2018-06-20T03:24:41.205Z,23.80
2018-06-20T03:25:46.113Z,23.70
2018-06-20T03:26:51.030Z,23.80
2018-06-20T03:27:55.928Z,23.70
2018-06-20T03:29:01.070Z,23.70
2018-06-20T03:30:06.034Z,23.70
2018-06-20T03:31:10.970Z,23.70
2018-06-20T03:32:15.786Z,23.70
2018-06-20T03:33:20.746Z,23.70
2018-06-20T03:34:25.686Z,23.70
2018-06-20T03:35:30.528Z,23.70
2018-06-20T03:36:35.280Z,23.70
2018-06-20T03:37:40.065Z,23.80
2018-06-20T03:38:45.168Z,23.80
2018-06-20T03:39:50.112Z,23.70
2018-06-20T03:40:55.231Z,23.70
2018-06-20T03:42:00.225Z,23.70
2018-06-20T03:43:05.070Z,23.70
2018-06-20T03:44:09.932Z,23.70
2018-06-20T03:45:14.948Z,23.80
2018-06-20T03:46:19.835Z,23.80
2018-06-20T03:47:24.821Z,23.70
2018-06-20T03:48:29.742Z,23.70
2018-06-20T03:49:34.717Z,23.70
2018-06-20T03:50:39.644Z,23.70
2018-06-20T03:51:44.550Z,23.70
2018-06-20T03:52:49.468Z,23.70
2018-06-20T03:53:54.509Z,23.70
2018-06-20T03:54:59.458Z,23.70
2018-06-20T03:56:04.450Z,23.80
2018-06-20T03:57:09.315Z,23.80
2018-06-20T03:58:14.224Z,23.70
2018-06-20T03:59:18.986Z,23.70
2018-06-20T04:00:23.874Z,23.70
2018-06-20T04:01:28.861Z,23.70
2018-06-20T04:02:33.775Z,23.70
2018-06-20T04:03:38.828Z,23.70
2018-06-20T04:04:43.754Z,23.70
2018-06-20T04:05:48.673Z,23.70
2018-06-20T04:06:53.594Z,23.70
2018-06-20T04:07:58.574Z,23.70
2018-06-20T04:09:03.390Z,23.70
2018-06-20T04:10:08.177Z,23.70
2018-06-20T04:11:13.093Z,23.70
2018-06-20T04:12:18.003Z,23.70
2018-06-20T04:13:22.879Z,23.70
2018-06-20T04:14:27.730Z,23.70
2018-06-20T04:15:32.769Z,23.70
2018-06-20T04:16:37.619Z,23.70
2018-06-20T04:17:42.495Z,23.70
2018-06-20T04:18:47.360Z,23.70
2018-06-20T04:19:52.137Z,23.70
2018-06-20T04:20:56.883Z,23.70
2018-06-20T04:22:01.673Z,23.70
2018-06-20T04:23:06.547Z,23.70
2018-06-20T04:24:11.443Z,23.70
2018-06-20T04:25:16.235Z,23.70
2018-06-20T04:26:21.191Z,23.70
2018-06-20T04:27:26.065Z,23.70
2018-06-20T04:28:30.815Z,23.70
2018-06-20T04:29:35.741Z,23.70
2018-06-20T04:30:40.723Z,23.70
2018-06-20T04:31:45.674Z,23.70
2018-06-20T04:32:50.724Z,23.70
2018-06-20T04:33:55.667Z,23.70
2018-06-20T04:35:00.816Z,23.70
2018-06-20T04:36:05.554Z,23.70
2018-06-20T04:37:10.373Z,23.70
2018-06-20T04:38:15.255Z,23.70
2018-06-20T04:39:20.087Z,23.70
2018-06-20T04:40:25.032Z,23.70
2018-06-20T04:41:29.972Z,23.70
2018-06-20T04:42:34.802Z,23.70
2018-06-20T04:43:39.637Z,23.70
2018-06-20T04:44:44.489Z,23.70
2018-06-20T04:45:49.337Z,23.70
2018-06-20T04:46:54.175Z,23.70
2018-06-20T04:47:59.004Z,23.70
2018-06-20T04:49:03.977Z,23.70
2018-06-20T04:50:08.812Z,23.70
2018-06-20T04:51:13.647Z,23.70
2018-06-20T04:52:18.670Z,23.70
2018-06-20T04:53:23.641Z,23.70
2018-06-20T04:54:28.556Z,23.70
2018-06-20T04:55:33.430Z,23.70
2018-06-20T04:56:38.324Z,23.70
2018-06-20T04:57:43.310Z,23.70
2018-06-20T04:58:48.215Z,23.70
2018-06-20T04:59:53.029Z,23.70
2018-06-20T05:00:57.976Z,23.70
2018-06-20T05:02:03.050Z,23.70
2018-06-20T05:03:08.016Z,23.70
2018-06-20T05:04:12.850Z,23.70
2018-06-20T05:05:17.613Z,23.70
2018-06-20T05:06:22.434Z,23.70
2018-06-20T05:07:27.314Z,23.70
2018-06-20T05:08:32.289Z,23.70
2018-06-20T05:09:37.050Z,23.70
2018-06-20T05:10:42.051Z,23.60
2018-06-20T05:11:46.971Z,23.60
2018-06-20T05:12:51.751Z,23.60
2018-06-20T05:13:56.492Z,23.60
2018-06-20T05:15:01.272Z,23.60
2018-06-20T05:16:06.512Z,23.60
2018-06-20T05:17:11.272Z,23.60
2018-06-20T05:18:16.202Z,23.60
2018-06-20T05:19:21.168Z,23.60
2018-06-20T05:20:26.096Z,23.60
2018-06-20T05:21:30.848Z,23.60
2018-06-20T05:22:35.879Z,23.60
2018-06-20T05:23:40.708Z,23.60
2018-06-20T05:24:46.005Z,23.50
2018-06-20T05:25:50.900Z,23.50
2018-06-20T05:26:55.667Z,23.50
2018-06-20T05:28:00.617Z,23.50
2018-06-20T05:29:05.571Z,23.50
2018-06-20T05:30:12.889Z,23.50
2018-06-20T05:31:17.918Z,23.50
2018-06-20T05:32:23.262Z,23.50
2018-06-20T05:33:28.153Z,23.50
2018-06-20T05:34:33.083Z,23.50
2018-06-20T05:35:37.913Z,23.50
2018-06-20T05:36:42.831Z,23.50
2018-06-20T05:37:47.907Z,23.50
2018-06-20T05:38:52.798Z,23.50
2018-06-20T05:39:57.851Z,23.50
2018-06-20T05:41:02.787Z,23.50
2018-06-20T05:42:07.689Z,23.50
2018-06-20T05:43:12.633Z,23.50
2018-06-20T05:44:17.657Z,23.50
2018-06-20T05:45:22.665Z,23.50
2018-06-20T05:46:27.663Z,23.50
2018-06-20T05:47:32.637Z,23.50
2018-06-20T05:48:38.527Z,23.40
2018-06-20T05:49:43.347Z,23.50
2018-06-20T05:50:48.241Z,23.50
2018-06-20T05:51:53.138Z,23.50
2018-06-20T05:52:57.925Z,23.50
2018-06-20T05:54:02.886Z,23.50
2018-06-20T05:55:07.633Z,23.50
2018-06-20T05:56:12.443Z,23.50
2018-06-20T05:57:17.244Z,23.50
2018-06-20T05:58:22.142Z,23.50
2018-06-20T05:59:26.927Z,23.50
2018-06-20T06:00:32.184Z,23.50
2018-06-20T06:01:37.160Z,23.50
2018-06-20T06:02:42.166Z,23.50
2018-06-20T06:03:47.017Z,23.50
2018-06-20T06:04:52.109Z,23.50
2018-06-20T06:05:57.093Z,23.50
2018-06-20T06:07:01.953Z,23.50
2018-06-20T06:08:07.060Z,23.50
2018-06-20T06:09:12.022Z,23.50
2018-06-20T06:10:17.485Z,23.50
2018-06-20T06:11:22.443Z,23.50
2018-06-20T06:12:27.320Z,23.50
2018-06-20T06:13:32.116Z,23.50
2018-06-20T06:14:37.058Z,23.50
2018-06-20T06:15:42.048Z,23.50
2018-06-20T06:16:46.843Z,23.50
2018-06-20T06:17:51.670Z,23.50
2018-06-20T06:18:56.494Z,23.50
2018-06-20T06:20:01.430Z,23.50
2018-06-20T06:21:06.254Z,23.50
2018-06-20T06:22:11.020Z,23.50
2018-06-20T06:23:15.946Z,23.50
2018-06-20T06:24:20.796Z,23.50
2018-06-20T06:25:25.637Z,23.50
2018-06-20T06:26:30.578Z,23.60
2018-06-20T06:27:35.602Z,23.50
2018-06-20T06:28:40.452Z,23.50
2018-06-20T06:29:45.181Z,23.60
2018-06-20T06:30:49.951Z,23.60
2018-06-20T06:31:54.823Z,23.50
2018-06-20T06:32:59.592Z,23.60
2018-06-20T06:34:04.382Z,23.60
2018-06-20T06:35:09.279Z,23.60
2018-06-20T06:36:14.110Z,23.60
2018-06-20T06:37:19.021Z,23.60
2018-06-20T06:38:24.018Z,23.60
2018-06-20T06:39:29.490Z,23.60
2018-06-20T06:40:36.553Z,23.60
2018-06-20T06:41:41.551Z,23.60
2018-06-20T06:42:46.467Z,23.60
2018-06-20T06:43:51.449Z,23.60
2018-06-20T06:44:56.416Z,23.60
2018-06-20T06:46:01.343Z,23.50
2018-06-20T06:47:06.349Z,23.50
2018-06-20T06:48:11.753Z,23.50
2018-06-20T06:49:16.494Z,23.50
2018-06-20T06:50:21.480Z,23.40
2018-06-20T06:51:26.542Z,23.40
2018-06-20T06:52:31.405Z,23.50
2018-06-20T06:53:36.332Z,23.50
2018-06-20T06:54:41.261Z,23.50
2018-06-20T06:55:46.605Z,23.50
2018-06-20T06:56:51.581Z,23.50
2018-06-20T06:57:56.467Z,23.50
2018-06-20T06:59:13.214Z,23.50
2018-06-20T07:00:18.269Z,23.50
2018-06-20T07:01:23.275Z,23.50
2018-06-20T07:02:28.242Z,23.50
2018-06-20T07:03:33.105Z,23.50
2018-06-20T07:04:37.959Z,23.50
2018-06-20T07:05:42.818Z,23.50
2018-06-20T07:06:47.901Z,23.50
2018-06-20T07:07:52.925Z,23.50
2018-06-20T07:08:57.952Z,23.50
2018-06-20T07:10:02.800Z,23.40
2018-06-20T07:11:08.064Z,23.40
2018-06-20T07:12:12.928Z,23.50
2018-06-20T07:13:18.073Z,23.50
2018-06-20T07:14:23.112Z,23.50
2018-06-20T07:15:28.052Z,23.50
2018-06-20T07:16:32.884Z,23.60
2018-06-20T07:17:37.865Z,23.60
2018-06-20T07:18:43.903Z,23.60
2018-06-20T07:19:48.856Z,23.70
2018-06-20T07:20:53.867Z,23.60
2018-06-20T07:21:58.653Z,23.60
2018-06-20T07:23:03.580Z,23.60
2018-06-20T07:24:08.527Z,23.60
2018-06-20T07:25:13.336Z,23.60
2018-06-20T07:26:18.161Z,23.60
2018-06-20T07:27:22.845Z,23.70
2018-06-20T07:28:27.834Z,23.70
2018-06-20T07:29:33.014Z,23.70
2018-06-20T07:30:37.842Z,23.70
2018-06-20T07:31:42.968Z,23.70
2018-06-20T07:32:47.824Z,23.70
2018-06-20T07:33:52.678Z,23.70
2018-06-20T07:34:57.442Z,23.70
2018-06-20T07:36:02.580Z,23.70
2018-06-20T07:37:07.373Z,23.70
2018-06-20T07:38:12.212Z,23.70
2018-06-20T07:39:17.008Z,23.70
2018-06-20T07:40:21.945Z,23.70
2018-06-20T07:41:26.887Z,23.70
2018-06-20T07:42:31.872Z,23.70
2018-06-20T07:43:36.880Z,23.70
2018-06-20T07:44:41.859Z,23.70
2018-06-20T07:45:46.803Z,23.70
2018-06-20T07:46:51.664Z,23.70
2018-06-20T07:47:56.603Z,23.70
2018-06-20T07:49:01.422Z,23.70
2018-06-20T07:50:06.302Z,23.70
2018-06-20T07:51:11.138Z,23.70
2018-06-20T07:52:16.023Z,23.70
2018-06-20T07:53:20.918Z,23.70
2018-06-20T07:54:25.931Z,23.70
2018-06-20T07:55:30.816Z,23.70
2018-06-20T07:56:35.597Z,23.70
2018-06-20T07:57:40.532Z,23.70
2018-06-20T07:58:45.435Z,23.70
2018-06-20T07:59:50.263Z,23.70
2018-06-20T08:00:55.205Z,23.70
2018-06-20T08:02:00.147Z,23.70
2018-06-20T08:03:05.014Z,23.70
2018-06-20T08:04:09.806Z,23.70
2018-06-20T08:05:14.628Z,23.80
2018-06-20T08:06:19.565Z,23.70
2018-06-20T08:07:24.385Z,23.70
2018-06-20T08:08:29.344Z,23.70
2018-06-20T08:09:34.249Z,23.80
2018-06-20T08:10:39.025Z,23.80
2018-06-20T08:11:43.919Z,23.70
2018-06-20T08:12:48.672Z,23.70
2018-06-20T08:13:53.707Z,23.70
2018-06-20T08:14:58.527Z,23.70
2018-06-20T08:16:03.722Z,23.70
2018-06-20T08:17:08.592Z,23.70
2018-06-20T08:18:13.399Z,23.70
2018-06-20T08:19:18.185Z,23.80
2018-06-20T08:20:23.093Z,23.70
2018-06-20T08:21:28.068Z,23.70
2018-06-20T08:22:32.954Z,23.70
2018-06-20T08:23:37.900Z,23.70
2018-06-20T08:24:42.817Z,23.70
2018-06-20T08:25:47.677Z,23.70
2018-06-20T08:26:52.503Z,23.70
2018-06-20T08:27:57.316Z,23.70
2018-06-20T08:29:02.125Z,23.70
2018-06-20T08:30:06.922Z,23.70
2018-06-20T08:31:11.804Z,23.70
2018-06-20T08:32:16.817Z,23.70
2018-06-20T08:33:21.568Z,23.70
2018-06-20T08:34:26.354Z,23.80
2018-06-20T08:35:31.232Z,23.80
2018-06-20T08:36:36.094Z,23.70
2018-06-20T08:37:41.025Z,23.70
2018-06-20T08:38:45.779Z,23.70
2018-06-20T08:39:50.678Z,23.80
2018-06-20T08:40:55.602Z,23.80
2018-06-20T08:42:00.473Z,23.70
2018-06-20T08:43:05.263Z,23.80
2018-06-20T08:44:10.061Z,23.80
2018-06-20T08:45:14.867Z,23.80
2018-06-20T08:46:19.803Z,23.80
2018-06-20T08:47:25.004Z,23.80
2018-06-20T08:48:29.920Z,23.80
2018-06-20T08:49:34.758Z,23.80
2018-06-20T08:50:39.678Z,23.80
2018-06-20T08:51:44.513Z,23.80
2018-06-20T08:52:49.276Z,23.80
2018-06-20T08:53:54.075Z,23.80
2018-06-20T08:54:58.868Z,23.80
2018-06-20T08:56:03.736Z,23.80
2018-06-20T08:57:08.712Z,23.80
2018-06-20T08:58:13.656Z,23.80
2018-06-20T08:59:18.579Z,23.80
2018-06-20T09:00:23.495Z,23.80
2018-06-20T09:01:28.350Z,23.80
2018-06-20T09:02:33.316Z,23.80
2018-06-20T09:03:38.247Z,23.80
2018-06-20T09:04:43.172Z,23.80
2018-06-20T09:05:48.032Z,23.80
2018-06-20T09:06:52.996Z,23.80
2018-06-20T09:07:57.964Z,23.80
2018-06-20T09:09:02.887Z,23.80
2018-06-20T09:10:07.841Z,23.80
2018-06-20T09:11:12.648Z,23.80
2018-06-20T09:12:17.524Z,23.80
2018-06-20T09:13:22.491Z,23.80
2018-06-20T09:14:27.417Z,23.80
2018-06-20T09:15:32.092Z,23.80
2018-06-20T09:16:37.011Z,23.80
2018-06-20T09:17:41.760Z,23.80
2018-06-20T09:18:46.532Z,23.80
2018-06-20T09:19:51.330Z,23.80
2018-06-20T09:20:56.101Z,23.80
2018-06-20T09:22:01.091Z,23.80
2018-06-20T09:23:05.961Z,23.80
2018-06-20T09:24:10.818Z,23.80
2018-06-20T09:25:15.674Z,23.80
2018-06-20T09:26:20.611Z,23.80
2018-06-20T09:27:25.567Z,23.80
2018-06-20T09:28:30.481Z,23.80
2018-06-20T09:29:35.239Z,23.80
2018-06-20T09:30:40.223Z,23.80
2018-06-20T09:31:45.021Z,23.80
2018-06-20T09:32:49.882Z,23.80
2018-06-20T09:33:54.778Z,23.80
2018-06-20T09:34:59.551Z,23.80
2018-06-20T09:36:04.370Z,23.80
2018-06-20T09:37:09.315Z,23.80
2018-06-20T09:38:14.150Z,23.80
2018-06-20T09:39:19.121Z,23.80
2018-06-20T09:40:23.954Z,23.80
2018-06-20T09:41:28.819Z,23.80
2018-06-20T09:42:33.681Z,23.80
2018-06-20T09:43:38.461Z,23.80
2018-06-20T09:44:43.405Z,23.80
2018-06-20T09:45:48.484Z,23.80
2018-06-20T09:46:53.542Z,23.80
2018-06-20T09:47:58.399Z,23.80
2018-06-20T09:49:03.352Z,23.80
2018-06-20T09:50:08.126Z,23.80
2018-06-20T09:51:13.035Z,23.80
2018-06-20T09:52:17.933Z,23.80
2018-06-20T09:53:23.501Z,23.80
2018-06-20T09:54:28.223Z,23.90
2018-06-20T09:55:33.221Z,23.90
2018-06-20T09:56:38.255Z,23.80
2018-06-20T09:57:43.100Z,23.80
2018-06-20T09:58:47.992Z,23.90
2018-06-20T09:59:52.929Z,23.90
2018-06-20T10:00:57.837Z,23.80
2018-06-20T10:02:02.797Z,23.80
2018-06-20T10:03:07.592Z,23.90
2018-06-20T10:04:12.468Z,23.80
2018-06-20T10:05:17.430Z,23.80
2018-06-20T10:06:22.437Z,23.80
2018-06-20T10:07:27.223Z,23.80
2018-06-20T10:08:32.052Z,23.80
2018-06-20T10:09:36.902Z,23.80
2018-06-20T10:10:41.832Z,23.80
2018-06-20T10:11:46.773Z,23.90
2018-06-20T10:12:51.614Z,23.90
2018-06-20T10:13:56.537Z,23.90
2018-06-20T10:15:01.431Z,23.90
2018-06-20T10:16:06.419Z,23.90
2018-06-20T10:17:11.263Z,23.90
2018-06-20T10:18:16.187Z,23.90
2018-06-20T10:19:21.333Z,23.90
2018-06-20T10:20:26.215Z,23.90
2018-06-20T10:21:31.270Z,23.90
2018-06-20T10:22:36.194Z,23.90
2018-06-20T10:23:41.129Z,23.90
2018-06-20T10:24:46.032Z,23.90
2018-06-20T10:25:50.945Z,23.90
2018-06-20T10:26:55.909Z,23.90
2018-06-20T10:28:02.098Z,23.90
2018-06-20T10:29:06.972Z,23.90
2018-06-20T10:30:11.861Z,23.90
2018-06-20T10:31:16.713Z,23.90
2018-06-20T10:32:21.678Z,23.90
2018-06-20T10:33:26.584Z,23.90
2018-06-20T10:34:31.538Z,23.90
2018-06-20T10:35:36.449Z,23.90
2018-06-20T10:36:41.451Z,23.90
2018-06-20T10:37:46.379Z,23.90
2018-06-20T10:38:51.180Z,23.90
2018-06-20T10:39:56.155Z,23.90
2018-06-20T10:41:01.046Z,23.90
2018-06-20T10:42:06.037Z,23.90
2018-06-20T10:43:10.987Z,23.90
2018-06-20T10:44:15.984Z,23.90
2018-06-20T10:45:20.956Z,23.90
2018-06-20T10:46:26.040Z,23.90
2018-06-20T10:47:30.838Z,23.90
2018-06-20T10:48:35.762Z,23.90
2018-06-20T10:49:40.653Z,23.90
2018-06-20T10:50:45.574Z,23.90
2018-06-20T10:51:53.582Z,23.90
2018-06-20T10:52:58.584Z,23.90
2018-06-20T10:54:03.634Z,23.90
2018-06-20T10:55:08.496Z,23.90
2018-06-20T10:56:13.479Z,23.90
2018-06-20T10:57:18.452Z,23.90
2018-06-20T10:58:23.479Z,23.90
2018-06-20T10:59:28.469Z,23.90
2018-06-20T11:00:33.483Z,23.90
2018-06-20T11:01:38.269Z,23.90
2018-06-20T11:02:43.115Z,23.90
2018-06-20T11:03:48.141Z,24.00
2018-06-20T11:04:53.136Z,23.90
2018-06-20T11:05:58.093Z,23.90
2018-06-20T11:07:03.054Z,23.90
2018-06-20T11:08:07.941Z,23.90
2018-06-20T11:09:12.909Z,23.90
2018-06-20T11:10:17.772Z,23.90
2018-06-20T11:11:22.660Z,23.90
2018-06-20T11:12:27.510Z,24.00
2018-06-20T11:13:32.506Z,24.00
2018-06-20T11:14:37.293Z,24.00
2018-06-20T11:15:42.070Z,24.00
2018-06-20T11:16:47.017Z,24.00
2018-06-20T11:17:51.885Z,24.00
2018-06-20T11:18:56.760Z,24.00
2018-06-20T11:20:01.801Z,24.00
2018-06-20T11:21:06.788Z,24.00
2018-06-20T11:22:11.687Z,24.10
2018-06-20T11:23:16.644Z,24.00
2018-06-20T11:24:21.534Z,24.10
2018-06-20T11:25:26.558Z,24.10
2018-06-20T11:26:31.480Z,24.10
2018-06-20T11:27:36.478Z,24.10
2018-06-20T11:28:41.372Z,24.10
2018-06-20T11:29:46.211Z,24.10
2018-06-20T11:30:51.040Z,24.10
2018-06-20T11:31:56.018Z,24.10
2018-06-20T11:33:01.060Z,24.10
2018-06-20T11:34:05.912Z,24.00
2018-06-20T11:35:10.784Z,24.10
2018-06-20T11:36:15.775Z,24.10
2018-06-20T11:37:20.662Z,24.10
2018-06-20T11:38:26.613Z,24.10
2018-06-20T11:39:31.673Z,24.10
2018-06-20T11:40:36.690Z,24.00
2018-06-20T11:41:42.300Z,24.00
2018-06-20T11:42:47.304Z,24.00
2018-06-20T11:43:52.242Z,24.10
2018-06-20T11:44:57.198Z,24.10
2018-06-20T11:46:02.294Z,24.10
2018-06-20T11:47:07.339Z,24.10
2018-06-20T11:48:13.269Z,24.10
2018-06-20T11:49:18.425Z,24.10
2018-06-20T11:50:23.435Z,24.10
2018-06-20T11:51:28.330Z,24.10
2018-06-20T11:52:33.362Z,24.10
2018-06-20T11:53:38.370Z,24.10
2018-06-20T11:54:43.360Z,24.10
2018-06-20T11:55:48.295Z,24.10
2018-06-20T11:56:53.239Z,24.10
2018-06-20T11:57:58.151Z,24.10
2018-06-20T11:59:03.026Z,24.10
2018-06-20T12:00:07.884Z,24.10
2018-06-20T12:01:12.735Z,24.10
2018-06-20T12:02:17.582Z,24.10
2018-06-20T12:03:22.619Z,24.10
2018-06-20T12:04:27.410Z,24.10
2018-06-20T12:05:32.310Z,24.10
2018-06-20T12:06:37.293Z,24.10
2018-06-20T12:07:42.179Z,24.20
2018-06-20T12:08:47.016Z,24.10
2018-06-20T12:09:51.967Z,24.10
2018-06-20T12:10:56.829Z,24.10
2018-06-20T12:12:01.769Z,24.20
2018-06-20T12:13:06.628Z,24.20
2018-06-20T12:14:11.427Z,24.20
2018-06-20T12:15:16.353Z,24.20
2018-06-20T12:16:21.393Z,24.20
2018-06-20T12:17:26.293Z,24.20
2018-06-20T12:18:31.432Z,24.20
2018-06-20T12:19:36.430Z,24.20
2018-06-20T12:20:41.227Z,24.20
2018-06-20T12:21:46.036Z,24.20
2018-06-20T12:22:50.858Z,24.20
2018-06-20T12:23:55.952Z,24.20
2018-06-20T12:25:00.843Z,24.20
2018-06-20T12:26:05.675Z,24.20
2018-06-20T12:27:10.516Z,24.20
2018-06-20T12:28:15.346Z,24.20
2018-06-20T12:29:20.190Z,24.20
2018-06-20T12:30:25.108Z,24.20
2018-06-20T12:31:30.127Z,24.20
2018-06-20T12:32:34.897Z,24.20
2018-06-20T12:33:39.663Z,24.20
2018-06-20T12:34:44.458Z,24.20
2018-06-20T12:35:49.189Z,24.20
2018-06-20T12:36:54.200Z,24.20
2018-06-20T12:37:59.104Z,24.20
2018-06-20T12:39:04.013Z,24.20
2018-06-20T12:40:08.844Z,24.20
2018-06-20T12:41:13.645Z,24.20
2018-06-20T12:42:18.596Z,24.20
2018-06-20T12:43:23.471Z,24.20
2018-06-20T12:44:28.307Z,24.20
2018-06-20T12:45:33.074Z,24.20
2018-06-20T12:46:37.944Z,24.20
2018-06-20T12:47:42.767Z,24.20
2018-06-20T12:48:47.539Z,24.20
2018-06-20T12:49:52.378Z,24.20
2018-06-20T12:50:57.342Z,24.20
2018-06-20T12:52:02.907Z,24.20
2018-06-20T12:53:07.754Z,24.20
2018-06-20T12:54:12.724Z,24.20
2018-06-20T12:55:17.527Z,24.20
2018-06-20T12:56:22.328Z,24.20
2018-06-20T12:57:27.294Z,24.20
2018-06-20T12:58:32.098Z,24.20
2018-06-20T12:59:36.877Z,24.20
2018-06-20T13:00:41.673Z,24.20
2018-06-20T13:01:46.530Z,24.20
2018-06-20T13:02:51.462Z,24.20
2018-06-20T13:03:56.385Z,24.20
2018-06-20T13:05:01.370Z,24.20
2018-06-20T13:06:06.504Z,24.20
2018-06-20T13:07:12.166Z,24.20
2018-06-20T13:08:17.398Z,24.20
2018-06-20T13:09:22.342Z,24.20
2018-06-20T13:10:27.587Z,24.20
2018-06-20T13:11:32.464Z,24.20
2018-06-20T13:12:37.560Z,24.20
2018-06-20T13:13:42.450Z,24.20
2018-06-20T13:14:47.343Z,24.20
2018-06-20T13:15:52.291Z,24.10
2018-06-20T13:16:57.302Z,24.10
2018-06-20T13:18:02.335Z,24.10
2018-06-20T13:19:07.269Z,24.10
2018-06-20T13:20:12.412Z,24.10
2018-06-20T13:21:17.384Z,24.10
2018-06-20T13:22:22.514Z,24.10
2018-06-20T13:23:27.539Z,24.10
2018-06-20T13:24:32.456Z,24.10
2018-06-20T13:25:37.541Z,24.10
2018-06-20T13:26:42.481Z,24.10
2018-06-20T13:27:47.400Z,24.10
2018-06-20T13:28:52.591Z,24.10
2018-06-20T13:29:57.588Z,24.10
2018-06-20T13:31:02.642Z,24.10
2018-06-20T13:32:07.571Z,24.10
2018-06-20T13:33:12.480Z,24.20
2018-06-20T13:34:17.485Z,24.20
2018-06-20T13:35:22.560Z,24.20
2018-06-20T13:36:27.748Z,24.20
2018-06-20T13:37:32.911Z,24.20
2018-06-20T13:38:37.922Z,24.20
2018-06-20T13:39:43.215Z,24.10
2018-06-20T13:40:53.158Z,24.20
2018-06-20T13:41:58.575Z,24.20
2018-06-20T13:43:03.579Z,24.10
2018-06-20T13:44:08.604Z,24.20
2018-06-20T13:45:13.663Z,24.10
2018-06-20T13:46:18.669Z,24.10
2018-06-20T13:47:23.645Z,24.20
2018-06-20T13:48:28.600Z,24.10
2018-06-20T13:49:33.627Z,24.10
2018-06-20T13:50:38.635Z,24.10
2018-06-20T13:51:43.709Z,24.10
2018-06-20T13:52:48.582Z,24.10
2018-06-20T13:53:53.559Z,24.10
2018-06-20T13:54:58.433Z,24.10
2018-06-20T13:56:03.567Z,24.10
2018-06-20T13:57:08.341Z,24.10